createdAt,value
2022-12-26T00:01:09.608Z,30.60
2022-12-26T00:03:56.595Z,30.17
2022-12-26T00:06:42.700Z,30.05
2022-12-26T00:09:28.341Z,26.52
2022-12-26T00:12:14.209Z,32.17
2022-12-26T00:15:00.235Z,36.08
2022-12-26T00:17:45.946Z,44.75
2022-12-26T00:20:31.485Z,45.08
2022-12-26T00:23:17.079Z,51.35
2022-12-26T00:26:08.312Z,62.95
2022-12-26T00:28:55.289Z,67.82
2022-12-26T00:31:41.164Z,68.07
2022-12-26T00:34:26.826Z,59.80
2022-12-26T00:37:12.467Z,45.58
2022-12-26T00:39:58.126Z,43.38
2022-12-26T00:42:44.799Z,42.20
2022-12-26T00:45:30.620Z,43.38
2022-12-26T00:48:16.210Z,44.83
2022-12-26T00:51:02.164Z,46.25
2022-12-26T00:53:48.161Z,45.75
2022-12-26T00:56:35.047Z,49.42
2022-12-26T00:59:21.930Z,45.45
2022-12-26T01:02:27.896Z,44.85
2022-12-26T01:05:13.785Z,45.10
2022-12-26T01:08:21.146Z,43.78
2022-12-26T01:11:08.255Z,48.38
2022-12-26T01:13:54.128Z,45.25
2022-12-26T01:16:40.588Z,43.80
2022-12-26T01:19:26.522Z,44.28
2022-12-26T01:22:12.308Z,43.95
2022-12-26T01:24:58.203Z,34.88
2022-12-26T01:27:44.265Z,39.47
2022-12-26T01:30:29.982Z,42.70
2022-12-26T01:33:16.161Z,47.78
2022-12-26T01:36:01.927Z,41.50
2022-12-26T01:38:47.501Z,46.13
2022-12-26T01:41:33.374Z,52.40
2022-12-26T01:44:56.609Z,72.40
2022-12-26T01:47:57.181Z,86.60
2022-12-26T01:50:42.839Z,106.20
2022-12-26T01:53:37.591Z,92.70
2022-12-26T01:56:36.494Z,71.57
2022-12-26T01:59:25.834Z,105.63
2022-12-26T02:02:11.823Z,90.20
2022-12-26T02:05:16.776Z,53.03
2022-12-26T02:08:17.636Z,55.13
2022-12-26T02:11:31.619Z,46.17
2022-12-26T02:14:17.600Z,43.05
2022-12-26T02:17:04.089Z,32.38
2022-12-26T02:20:04.107Z,32.00
2022-12-26T02:23:20.104Z,42.78
2022-12-26T02:26:24.005Z,38.08
2022-12-26T02:29:21.984Z,49.58
2022-12-26T02:32:26.326Z,61.67
2022-12-26T02:35:37.190Z,35.03
2022-12-26T02:38:48.492Z,36.78
2022-12-26T02:41:50.402Z,30.30
2022-12-26T02:44:54.823Z,24.98
2022-12-26T02:48:10.195Z,21.63
2022-12-26T02:51:14.230Z,22.35
2022-12-26T02:54:38.713Z,47.25
2022-12-26T02:57:50.133Z,34.70
2022-12-26T03:00:57.755Z,29.90
2022-12-26T03:04:08.668Z,22.02
2022-12-26T03:07:16.172Z,23.75
2022-12-26T03:10:25.934Z,31.17
2022-12-26T03:13:26.334Z,28.10
2022-12-26T03:16:31.114Z,18.55
2022-12-26T03:19:17.367Z,24.13
2022-12-26T03:22:27.725Z,23.42
2022-12-26T03:25:50.854Z,25.33
2022-12-26T03:28:36.776Z,24.13
2022-12-26T03:31:22.811Z,23.80
2022-12-26T03:34:28.154Z,21.85
2022-12-26T03:37:56.237Z,26.58
2022-12-26T03:41:10.138Z,24.05
2022-12-26T03:48:37.835Z,21.42
2022-12-26T03:52:31.421Z,23.25
2022-12-26T03:56:15.828Z,18.60
2022-12-26T03:59:26.685Z,18.13
2022-12-26T04:02:39.702Z,18.23
2022-12-26T04:05:49.340Z,23.33
2022-12-26T04:09:13.315Z,36.38
2022-12-26T04:12:19.382Z,19.13
2022-12-26T04:16:06.103Z,24.52
2022-12-26T04:19:27.228Z,16.67
2022-12-26T04:22:39.672Z,24.65
2022-12-26T04:25:58.883Z,24.85
2022-12-26T04:29:03.397Z,17.75
2022-12-26T04:32:17.242Z,16.33
2022-12-26T04:35:47.024Z,16.93
2022-12-26T04:38:57.830Z,36.20
2022-12-26T04:42:03.841Z,11.82
2022-12-26T04:44:50.359Z,13.60
2022-12-26T04:47:36.447Z,13.32
2022-12-26T04:50:22.158Z,11.95
2022-12-26T04:53:07.733Z,31.42
2022-12-26T04:55:53.441Z,23.08
2022-12-26T04:58:39.286Z,14.63
2022-12-26T05:01:44.232Z,40.30
2022-12-26T05:04:48.996Z,23.40
2022-12-26T05:07:54.988Z,13.25
2022-12-26T05:10:40.978Z,12.93
2022-12-26T05:13:26.986Z,13.70
2022-12-26T05:16:31.143Z,26.05
2022-12-26T05:19:37.522Z,11.25
2022-12-26T05:22:42.515Z,13.32
2022-12-26T05:25:52.575Z,15.32
2022-12-26T05:28:44.638Z,13.68
2022-12-26T05:31:35.578Z,13.98
2022-12-26T05:34:22.421Z,15.55
2022-12-26T05:37:08.098Z,18.98
2022-12-26T05:39:53.853Z,31.60
2022-12-26T05:42:39.628Z,27.02
2022-12-26T05:45:25.237Z,15.07
2022-12-26T05:48:10.868Z,18.60
2022-12-26T05:51:03.377Z,19.08
2022-12-26T05:53:49.430Z,16.50
2022-12-26T05:56:35.319Z,28.02
2022-12-26T05:59:20.974Z,16.45
2022-12-26T06:02:07.002Z,19.70
2022-12-26T06:04:52.942Z,21.25
2022-12-26T06:07:38.863Z,18.65
2022-12-26T06:10:26.908Z,27.33
2022-12-26T06:13:12.564Z,27.92
2022-12-26T06:15:59.337Z,17.55
2022-12-26T06:18:45.661Z,150.13
2022-12-26T06:21:31.592Z,21.70
2022-12-26T06:24:17.382Z,32.75
2022-12-26T06:27:03.261Z,46.28
2022-12-26T06:29:49.179Z,41.83
2022-12-26T06:32:35.055Z,49.97
2022-12-26T06:35:23.660Z,19.58
2022-12-26T06:38:11.115Z,49.78
2022-12-26T06:41:02.887Z,25.05
2022-12-26T06:43:49.779Z,19.08
2022-12-26T06:46:35.398Z,34.95
2022-12-26T06:49:21.037Z,45.78
2022-12-26T06:52:07.490Z,36.40
2022-12-26T06:54:53.535Z,36.40
2022-12-26T06:57:39.199Z,25.33
2022-12-26T07:00:25.229Z,28.95
2022-12-26T07:03:11.544Z,34.70
2022-12-26T07:05:57.405Z,30.20
2022-12-26T07:08:43.014Z,21.42
2022-12-26T07:11:31.130Z,24.75
2022-12-26T07:14:17.277Z,31.55
2022-12-26T07:17:02.864Z,29.05
2022-12-26T07:19:48.569Z,18.67
2022-12-26T07:22:34.346Z,25.25
2022-12-26T07:25:20.119Z,46.70
2022-12-26T07:28:12.009Z,59.45
2022-12-26T07:30:59.986Z,69.43
2022-12-26T07:33:53.425Z,44.30
2022-12-26T07:36:40.508Z,39.67
2022-12-26T07:39:26.038Z,35.30
2022-12-26T07:42:11.810Z,30.75
2022-12-26T07:44:57.614Z,41.50
2022-12-26T07:47:43.108Z,40.25
2022-12-26T07:50:29.292Z,41.65
2022-12-26T07:53:15.438Z,53.47
2022-12-26T07:56:01.771Z,154.55
2022-12-26T07:58:51.549Z,168.10
2022-12-26T08:01:37.672Z,242.35
2022-12-26T08:04:23.735Z,127.60
2022-12-26T08:07:10.058Z,144.90
2022-12-26T08:09:55.676Z,143.95
2022-12-26T08:12:42.012Z,133.85
2022-12-26T08:15:27.781Z,426.15
2022-12-26T08:18:13.502Z,328.95
2022-12-26T08:20:59.890Z,247.57
2022-12-26T08:23:48.443Z,151.73
2022-12-26T08:26:34.411Z,130.15
2022-12-26T08:29:20.206Z,141.27
2022-12-26T08:32:06.169Z,122.88
2022-12-26T08:34:51.985Z,112.53
2022-12-26T08:37:38.004Z,89.00
2022-12-26T08:40:42.082Z,100.88
2022-12-26T08:43:48.914Z,87.45
2022-12-26T08:46:36.124Z,96.93
2022-12-26T08:49:21.765Z,93.90
2022-12-26T08:52:07.633Z,69.30
2022-12-26T08:54:53.676Z,74.05
2022-12-26T08:57:39.305Z,64.75
2022-12-26T09:00:26.477Z,70.15
2022-12-26T09:03:12.236Z,70.03
2022-12-26T09:06:05.718Z,73.15
2022-12-26T09:08:53.680Z,80.65
2022-12-26T09:11:41.071Z,81.03
2022-12-26T09:14:26.833Z,89.07
2022-12-26T09:17:12.727Z,103.95
2022-12-26T09:19:58.725Z,121.65
2022-12-26T09:22:55.570Z,126.70
2022-12-26T09:25:41.438Z,126.90
2022-12-26T09:28:27.515Z,126.32
2022-12-26T09:31:17.311Z,146.20
2022-12-26T09:34:05.220Z,160.23
2022-12-26T09:36:51.042Z,161.68
2022-12-26T09:39:36.919Z,148.07
2022-12-26T09:42:32.122Z,146.77
2022-12-26T09:45:19.965Z,156.82
2022-12-26T09:48:56.595Z,148.02
2022-12-26T09:51:46.001Z,141.90
2022-12-26T09:54:34.343Z,150.75
2022-12-26T09:57:34.945Z,134.70
2022-12-26T10:00:25.722Z,143.18
2022-12-26T10:03:12.835Z,119.53
2022-12-26T10:06:01.766Z,118.28
2022-12-26T10:09:08.794Z,129.30
2022-12-26T10:12:06.280Z,129.68
2022-12-26T10:15:07.497Z,136.88
2022-12-26T10:18:03.047Z,129.02
2022-12-26T10:21:11.508Z,129.32
2022-12-26T10:24:20.967Z,159.75
2022-12-26T10:27:14.482Z,237.27
2022-12-26T10:30:09.183Z,152.93
2022-12-26T10:32:59.597Z,154.82
2022-12-26T10:35:46.541Z,166.13
2022-12-26T10:38:46.195Z,167.52
2022-12-26T10:41:38.585Z,144.38
2022-12-26T10:44:27.763Z,143.20
2022-12-26T10:47:40.655Z,145.68
2022-12-26T10:50:29.424Z,144.93
2022-12-26T10:53:16.220Z,152.82
2022-12-26T10:56:02.656Z,125.03
2022-12-26T10:59:02.536Z,105.53
2022-12-26T11:01:49.753Z,112.35
2022-12-26T11:05:10.466Z,122.22
2022-12-26T11:07:50.534Z,112.93
2022-12-26T11:10:36.388Z,100.15
2022-12-26T11:13:23.323Z,108.82
2022-12-26T11:16:11.575Z,114.72
2022-12-26T11:18:57.849Z,104.45
2022-12-26T11:21:43.791Z,98.75
2022-12-26T11:24:29.549Z,176.68
2022-12-26T11:27:23.717Z,104.07
2022-12-26T11:30:23.208Z,201.25
2022-12-26T11:33:33.999Z,107.93
2022-12-26T11:36:22.985Z,98.43
2022-12-26T11:39:25.306Z,102.00
2022-12-26T11:42:12.515Z,97.47
2022-12-26T11:45:00.231Z,101.20
2022-12-26T11:47:46.318Z,96.63
2022-12-26T11:50:32.327Z,101.28
2022-12-26T11:53:20.689Z,94.10
2022-12-26T11:56:07.256Z,102.90
2022-12-26T11:59:08.107Z,100.20
2022-12-26T12:02:15.214Z,100.15
2022-12-26T12:05:13.144Z,100.90
2022-12-26T12:08:14.497Z,96.63
2022-12-26T12:11:34.375Z,107.22
2022-12-26T12:14:35.818Z,122.45
2022-12-26T12:17:35.132Z,118.07
2022-12-26T12:20:35.968Z,173.15
2022-12-26T12:23:44.151Z,115.72
2022-12-26T12:26:38.056Z,215.02
2022-12-26T12:29:42.619Z,182.38
2022-12-26T12:33:09.566Z,178.10
2022-12-26T12:36:11.804Z,153.23
2022-12-26T12:39:34.673Z,142.25
2022-12-26T12:42:28.098Z,172.40
2022-12-26T12:45:22.364Z,171.25
2022-12-26T12:48:33.042Z,185.45
2022-12-26T12:51:35.970Z,189.15
2022-12-26T12:55:12.538Z,193.88
2022-12-26T12:58:26.366Z,189.73
2022-12-26T13:01:34.505Z,199.98
2022-12-26T13:04:29.313Z,208.15
2022-12-26T13:07:39.429Z,207.95
2022-12-26T13:10:33.279Z,204.27
2022-12-26T13:13:27.457Z,208.20
2022-12-26T13:16:17.414Z,217.80
2022-12-26T13:19:06.922Z,204.43
2022-12-26T13:21:56.069Z,187.20
2022-12-26T13:24:45.343Z,163.23
2022-12-26T13:27:34.032Z,148.20
2022-12-26T13:30:19.805Z,121.28
2022-12-26T13:33:05.967Z,122.20
2022-12-26T13:36:01.028Z,125.00
2022-12-26T13:38:56.249Z,115.97
2022-12-26T13:42:26.916Z,111.80
2022-12-26T13:45:37.534Z,113.63
2022-12-26T13:48:26.363Z,116.53
2022-12-26T13:51:46.269Z,112.60
2022-12-26T13:54:32.668Z,112.35
2022-12-26T13:57:30.361Z,101.82
2022-12-26T14:00:40.108Z,112.28
2022-12-26T14:03:55.663Z,113.72
2022-12-26T14:07:05.484Z,119.00
2022-12-26T14:10:05.398Z,121.68
2022-12-26T14:13:27.833Z,119.97
2022-12-26T14:16:54.182Z,119.72
2022-12-26T14:19:53.705Z,133.02
2022-12-26T14:23:04.602Z,136.30
2022-12-26T14:26:03.642Z,131.13
2022-12-26T14:28:52.573Z,128.52
2022-12-26T14:32:04.039Z,125.32
2022-12-26T14:35:09.518Z,125.40
2022-12-26T14:38:11.306Z,130.38
2022-12-26T14:41:06.132Z,131.40
2022-12-26T14:43:56.338Z,153.88
2022-12-26T14:46:43.692Z,162.80
2022-12-26T14:49:35.922Z,153.75
2022-12-26T14:52:25.568Z,147.85
2022-12-26T14:56:01.592Z,179.88
2022-12-26T14:58:54.117Z,157.52
2022-12-26T15:01:40.342Z,256.83
2022-12-26T15:04:32.558Z,193.50
2022-12-26T15:07:42.716Z,155.45
2022-12-26T15:11:23.885Z,165.15
2022-12-26T15:14:28.479Z,156.57
2022-12-26T15:17:49.296Z,150.70
2022-12-26T15:21:09.169Z,143.10
2022-12-26T15:24:09.984Z,147.38
2022-12-26T15:27:38.562Z,154.90
2022-12-26T15:30:41.745Z,154.82
2022-12-26T15:33:43.454Z,158.77
2022-12-26T15:37:08.812Z,171.10
2022-12-26T15:40:08.157Z,172.00
2022-12-26T15:43:04.008Z,153.68
2022-12-26T15:45:58.593Z,163.43
2022-12-26T15:48:47.564Z,154.80
2022-12-26T15:51:55.652Z,168.73
2022-12-26T15:55:05.040Z,157.23
2022-12-26T15:58:02.012Z,189.63
2022-12-26T16:00:54.098Z,270.20
2022-12-26T16:03:54.026Z,291.15
2022-12-26T16:06:48.824Z,257.95
2022-12-26T16:09:43.870Z,311.30
2022-12-26T16:12:32.713Z,316.25
2022-12-26T16:15:19.116Z,289.58
2022-12-26T16:18:26.630Z,296.55
2022-12-26T16:21:33.244Z,312.58
2022-12-26T16:24:22.087Z,323.98
2022-12-26T16:27:09.611Z,326.83
2022-12-26T16:29:58.169Z,328.77
2022-12-26T16:32:45.008Z,330.25
2022-12-26T16:35:36.659Z,332.48
2022-12-26T16:38:26.772Z,344.00
2022-12-26T16:41:30.799Z,354.77
2022-12-26T16:44:41.439Z,344.55
2022-12-26T16:47:29.190Z,316.60
2022-12-26T16:50:17.899Z,311.77
2022-12-26T16:53:13.597Z,325.00
2022-12-26T16:56:23.591Z,315.30
2022-12-26T16:59:17.960Z,308.67
2022-12-26T17:02:04.803Z,323.65
2022-12-26T17:04:58.849Z,312.92
2022-12-26T17:07:46.887Z,318.85
2022-12-26T17:10:35.427Z,308.77
2022-12-26T17:13:25.205Z,292.85
2022-12-26T17:16:11.275Z,313.20
2022-12-26T17:19:19.910Z,323.63
2022-12-26T17:22:18.022Z,333.48
2022-12-26T17:25:32.043Z,308.75
2022-12-26T17:31:24.931Z,302.48
2022-12-26T17:34:17.760Z,265.27
2022-12-26T17:37:20.538Z,237.60
2022-12-26T17:40:16.018Z,276.95
2022-12-26T17:43:34.440Z,587.47
2022-12-26T17:46:23.764Z,420.70
2022-12-26T17:49:09.609Z,397.48
2022-12-26T17:52:02.044Z,461.45
2022-12-26T17:54:51.352Z,419.02
2022-12-26T17:57:37.116Z,446.85
2022-12-26T18:00:26.019Z,387.80
2022-12-26T18:03:12.239Z,192.45
2022-12-26T18:05:58.342Z,171.80
2022-12-26T18:08:44.765Z,171.32
2022-12-26T18:11:30.759Z,218.95
2022-12-26T18:14:16.432Z,183.35
2022-12-26T18:17:03.070Z,201.52
2022-12-26T18:19:50.224Z,193.95
2022-12-26T18:22:36.068Z,163.77
2022-12-26T18:25:24.817Z,163.38
2022-12-26T18:28:15.265Z,143.25
2022-12-26T18:31:01.360Z,144.27
2022-12-26T18:33:47.257Z,143.32
2022-12-26T18:36:35.850Z,160.35
2022-12-26T18:39:21.805Z,179.43
2022-12-26T18:42:12.047Z,192.82
2022-12-26T18:44:57.770Z,207.35
2022-12-26T18:47:43.448Z,195.63
2022-12-26T18:50:30.209Z,181.35
2022-12-26T18:53:15.955Z,170.32
2022-12-26T18:56:01.988Z,171.90
2022-12-26T18:58:54.065Z,165.05
2022-12-26T19:01:43.843Z,166.40
2022-12-26T19:04:29.726Z,178.25
2022-12-26T19:07:17.370Z,166.20
2022-12-26T19:10:03.018Z,167.05
2022-12-26T19:12:48.830Z,179.23
2022-12-26T19:15:36.013Z,171.20
2022-12-26T19:18:21.753Z,156.02
2022-12-26T19:21:16.505Z,158.98
2022-12-26T19:24:02.683Z,162.85
2022-12-26T19:26:48.715Z,158.93
2022-12-26T19:29:34.391Z,211.13
2022-12-26T19:32:20.366Z,203.30
2022-12-26T19:35:07.753Z,215.13
2022-12-26T19:37:53.597Z,205.80
2022-12-26T19:40:39.591Z,202.20
2022-12-26T19:43:25.343Z,208.00
2022-12-26T19:46:15.482Z,212.20
2022-12-26T19:49:01.449Z,211.98
2022-12-26T19:51:47.672Z,187.57
2022-12-26T19:54:42.922Z,196.55
2022-12-26T19:57:43.706Z,180.45
2022-12-26T20:00:30.883Z,180.35
2022-12-26T20:03:16.822Z,183.85
2022-12-26T20:06:15.436Z,177.38
2022-12-26T20:09:05.762Z,169.52
2022-12-26T20:11:54.206Z,153.55
2022-12-26T20:14:40.082Z,141.02
2022-12-26T20:17:26.128Z,141.05
2022-12-26T20:20:11.941Z,124.20
2022-12-26T20:22:57.842Z,144.50
2022-12-26T20:25:43.534Z,144.90
2022-12-26T20:28:29.801Z,141.23
2022-12-26T20:31:19.416Z,139.90
2022-12-26T20:34:05.377Z,140.70
2022-12-26T20:36:51.562Z,141.90
2022-12-26T20:39:37.572Z,149.02
2022-12-26T20:42:23.464Z,142.75
2022-12-26T20:45:09.632Z,164.73
2022-12-26T20:47:55.429Z,148.05
2022-12-26T20:50:41.366Z,142.68
2022-12-26T20:53:28.364Z,124.18
2022-12-26T20:56:14.817Z,130.63
2022-12-26T20:59:00.881Z,140.65
2022-12-26T21:01:46.778Z,121.22
2022-12-26T21:04:33.300Z,134.73
2022-12-26T21:07:19.425Z,136.95
2022-12-26T21:10:05.481Z,133.50
2022-12-26T21:12:53.433Z,151.35
2022-12-26T21:15:39.631Z,151.43
2022-12-26T21:18:25.702Z,144.38
2022-12-26T21:21:17.083Z,155.05
2022-12-26T21:24:10.871Z,135.15
2022-12-26T21:26:57.189Z,117.13
2022-12-26T21:29:42.995Z,124.63
2022-12-26T21:32:28.658Z,122.60
2022-12-26T21:35:14.960Z,109.40
2022-12-26T21:38:01.153Z,124.07
2022-12-26T21:40:47.372Z,116.90
2022-12-26T21:43:34.240Z,110.35
2022-12-26T21:46:20.660Z,109.68
2022-12-26T21:49:06.425Z,119.72
2022-12-26T21:51:52.052Z,112.90
2022-12-26T21:54:56.378Z,123.53
2022-12-26T21:57:42.182Z,110.03
2022-12-26T22:00:31.377Z,106.60
2022-12-26T22:03:52.539Z,99.25
2022-12-26T22:06:38.696Z,96.93
2022-12-26T22:09:25.044Z,103.65
2022-12-26T22:12:30.185Z,103.72
2022-12-26T22:15:34.948Z,100.10
2022-12-26T22:18:21.405Z,97.97
2022-12-26T22:21:12.987Z,101.53
2022-12-26T22:23:59.765Z,86.97
2022-12-26T22:26:45.910Z,103.10
2022-12-26T22:29:31.715Z,104.35
2022-12-26T22:32:17.454Z,102.90
2022-12-26T22:35:03.656Z,105.85
2022-12-26T22:37:49.451Z,114.95
2022-12-26T22:40:36.124Z,103.53
2022-12-26T22:43:22.311Z,117.15
2022-12-26T22:46:08.221Z,114.43
2022-12-26T22:48:54.038Z,102.47
2022-12-26T22:51:39.702Z,110.30
2022-12-26T22:54:26.079Z,96.72
2022-12-26T22:57:12.133Z,124.25
2022-12-26T23:00:08.235Z,130.15
2022-12-26T23:02:55.222Z,122.57
2022-12-26T23:05:41.592Z,112.07
2022-12-26T23:08:28.256Z,113.32
2022-12-26T23:11:14.497Z,103.03
2022-12-26T23:14:01.357Z,116.95
2022-12-26T23:16:58.385Z,117.63
2022-12-26T23:20:07.965Z,118.03
2022-12-26T23:22:54.095Z,96.47
2022-12-26T23:25:40.200Z,102.10
2022-12-26T23:28:44.619Z,97.97
2022-12-26T23:31:30.641Z,112.13
2022-12-26T23:34:16.369Z,112.20
2022-12-26T23:37:02.784Z,117.95
2022-12-26T23:39:48.646Z,103.57
2022-12-26T23:42:34.267Z,104.40
2022-12-26T23:45:20.191Z,113.55
2022-12-26T23:48:06.065Z,107.80
2022-12-26T23:51:03.914Z,108.60
2022-12-26T23:53:49.602Z,107.68
2022-12-26T23:56:36.978Z,119.50
2022-12-26T23:59:23.564Z,138.25
